createdAt,value
2022-10-19T00:01:08.488Z,29.38
2022-10-19T00:03:36.141Z,29.33
2022-10-19T00:06:17.110Z,28.60
2022-10-19T00:08:44.987Z,27.98
2022-10-19T00:11:12.764Z,26.10
2022-10-19T00:13:39.983Z,27.50
2022-10-19T00:16:13.202Z,26.38
2022-10-19T00:18:43.186Z,28.20
2022-10-19T00:21:13.395Z,28.00
2022-10-19T00:23:41.050Z,27.48
2022-10-19T00:26:08.726Z,26.73
2022-10-19T00:28:36.235Z,29.48
2022-10-19T00:31:05.415Z,27.17
2022-10-19T00:33:32.873Z,25.42
2022-10-19T00:36:00.190Z,26.17
2022-10-19T00:38:27.314Z,26.63
2022-10-19T00:40:54.418Z,26.30
2022-10-19T00:43:24.417Z,25.42
2022-10-19T00:45:51.738Z,25.65
2022-10-19T00:48:30.356Z,26.02
2022-10-19T00:50:59.792Z,27.10
2022-10-19T00:53:30.559Z,29.42
2022-10-19T00:56:02.116Z,20.65
2022-10-19T00:58:29.198Z,28.23
2022-10-19T01:00:57.331Z,23.67
2022-10-19T01:03:24.914Z,24.98
2022-10-19T01:05:52.685Z,28.02
2022-10-19T01:08:20.552Z,26.00
2022-10-19T01:11:14.156Z,25.65
2022-10-19T01:14:06.009Z,27.27
2022-10-19T01:17:02.477Z,27.83
2022-10-19T01:19:43.509Z,28.40
2022-10-19T01:22:30.157Z,28.13
2022-10-19T01:25:06.287Z,23.60
2022-10-19T01:28:07.855Z,26.00
2022-10-19T01:30:54.430Z,19.60
2022-10-19T01:33:27.488Z,29.70
2022-10-19T01:35:57.587Z,24.73
2022-10-19T01:38:46.927Z,19.63
2022-10-19T01:44:01.416Z,16.00
2022-10-19T01:46:40.385Z,17.77
2022-10-19T01:49:15.231Z,16.33
2022-10-19T01:51:52.858Z,16.15
2022-10-19T01:54:22.639Z,13.95
2022-10-19T01:56:51.883Z,16.08
2022-10-19T01:59:21.190Z,12.63
2022-10-19T02:01:51.124Z,13.15
2022-10-19T02:04:21.010Z,17.55
2022-10-19T02:06:50.089Z,11.20
2022-10-19T02:09:18.271Z,13.43
2022-10-19T02:11:50.533Z,11.05
2022-10-19T02:14:23.853Z,13.07
2022-10-19T02:17:02.095Z,12.07
2022-10-19T02:19:29.172Z,13.40
2022-10-19T02:21:56.419Z,15.07
2022-10-19T02:24:23.505Z,13.77
2022-10-19T02:26:51.463Z,14.73
2022-10-19T02:29:18.663Z,15.45
2022-10-19T02:31:45.802Z,13.48
2022-10-19T02:34:13.352Z,15.32
2022-10-19T02:36:40.719Z,16.50
2022-10-19T02:39:08.995Z,13.98
2022-10-19T02:42:06.644Z,14.32
2022-10-19T02:44:57.272Z,16.45
2022-10-19T02:47:28.329Z,14.85
2022-10-19T02:49:55.454Z,14.23
2022-10-19T02:52:22.670Z,13.50
2022-10-19T02:54:49.763Z,16.27
2022-10-19T02:57:21.069Z,15.68
2022-10-19T02:59:48.579Z,14.98
2022-10-19T03:02:16.830Z,12.88
2022-10-19T03:07:21.217Z,17.65
2022-10-19T03:09:48.926Z,13.18
2022-10-19T03:12:16.262Z,12.88
2022-10-19T03:14:43.711Z,11.73
2022-10-19T03:17:11.105Z,13.18
2022-10-19T03:19:38.683Z,11.50
2022-10-19T03:22:05.961Z,14.63
2022-10-19T03:24:33.183Z,11.23
2022-10-19T03:27:00.341Z,13.13
2022-10-19T03:29:27.408Z,11.35
2022-10-19T03:31:54.563Z,12.50
2022-10-19T03:34:21.655Z,12.20
2022-10-19T03:36:48.765Z,12.15
2022-10-19T03:39:16.754Z,12.70
2022-10-19T03:41:43.981Z,13.07
2022-10-19T03:44:11.784Z,11.55
2022-10-19T03:46:39.682Z,12.05
2022-10-19T03:49:07.093Z,11.82
2022-10-19T03:51:34.973Z,13.77
2022-10-19T03:54:07.716Z,11.10
2022-10-19T03:56:35.986Z,12.48
2022-10-19T03:59:04.718Z,14.35
2022-10-19T04:01:37.400Z,13.52
2022-10-19T04:04:07.628Z,13.50
2022-10-19T04:06:39.663Z,15.63
2022-10-19T04:09:08.464Z,13.57
2022-10-19T04:11:36.394Z,13.98
2022-10-19T04:14:04.386Z,13.88
2022-10-19T04:16:32.198Z,14.88
2022-10-19T04:18:59.772Z,13.93
2022-10-19T04:21:32.134Z,12.73
2022-10-19T04:24:02.256Z,13.38
2022-10-19T04:26:29.385Z,11.63
2022-10-19T04:28:59.962Z,11.93
2022-10-19T04:31:28.320Z,11.00
2022-10-19T04:33:56.211Z,11.85
2022-10-19T04:36:24.009Z,11.43
2022-10-19T04:38:51.106Z,12.68
2022-10-19T04:41:21.691Z,11.80
2022-10-19T04:43:50.223Z,13.07
2022-10-19T04:46:19.071Z,11.63
2022-10-19T04:48:47.638Z,9.60
2022-10-19T04:51:16.136Z,11.50
2022-10-19T04:53:44.079Z,10.40
2022-10-19T04:56:14.910Z,9.27
2022-10-19T04:58:42.276Z,9.95
2022-10-19T05:01:13.521Z,11.30
2022-10-19T05:03:40.957Z,12.18
2022-10-19T05:06:08.716Z,10.35
2022-10-19T05:08:37.108Z,11.35
2022-10-19T05:11:10.897Z,12.60
2022-10-19T05:13:38.120Z,12.25
2022-10-19T05:16:07.511Z,10.45
2022-10-19T05:21:09.398Z,10.70
2022-10-19T05:23:36.580Z,11.93
2022-10-19T05:26:06.630Z,12.85
2022-10-19T05:28:34.628Z,13.45
2022-10-19T05:31:09.965Z,11.82
2022-10-19T05:33:37.567Z,10.52
2022-10-19T05:36:42.623Z,11.40
2022-10-19T05:39:15.026Z,10.68
2022-10-19T05:41:46.727Z,11.65
2022-10-19T05:44:19.551Z,10.40
2022-10-19T05:46:47.355Z,11.73
2022-10-19T05:49:15.644Z,13.30
2022-10-19T05:51:42.957Z,11.40
2022-10-19T05:54:11.759Z,11.65
2022-10-19T05:56:40.097Z,14.38
2022-10-19T05:59:09.058Z,10.75
2022-10-19T06:01:36.870Z,13.30
2022-10-19T06:04:04.420Z,14.32
2022-10-19T06:06:31.536Z,12.18
2022-10-19T06:08:59.082Z,15.13
2022-10-19T06:11:31.372Z,14.40
2022-10-19T06:13:59.466Z,14.32
2022-10-19T06:16:27.177Z,12.95
2022-10-19T06:18:54.948Z,13.23
2022-10-19T06:21:25.107Z,12.13
2022-10-19T06:24:03.141Z,11.75
2022-10-19T06:26:31.598Z,11.55
2022-10-19T06:29:00.496Z,13.50
2022-10-19T06:31:29.012Z,13.95
2022-10-19T06:33:56.344Z,13.00
2022-10-19T06:36:25.843Z,13.05
2022-10-19T06:41:20.487Z,12.75
2022-10-19T06:43:52.040Z,15.00
2022-10-19T06:46:23.071Z,12.00
2022-10-19T06:48:54.727Z,11.25
2022-10-19T06:51:22.476Z,10.45
2022-10-19T06:53:52.822Z,11.75
2022-10-19T06:56:24.459Z,13.05
2022-10-19T06:58:52.029Z,12.50
2022-10-19T07:01:19.274Z,9.48
2022-10-19T07:03:46.432Z,9.40
2022-10-19T07:06:14.163Z,11.27
2022-10-19T07:08:42.383Z,9.55
2022-10-19T07:11:12.063Z,9.05
2022-10-19T07:13:39.185Z,10.18
2022-10-19T07:16:14.667Z,8.05
2022-10-19T07:18:45.313Z,9.05
2022-10-19T07:21:14.637Z,10.65
2022-10-19T07:23:43.417Z,11.02
2022-10-19T07:26:23.687Z,13.97
2022-10-19T07:28:50.873Z,13.23
2022-10-19T07:31:20.636Z,14.05
2022-10-19T07:33:51.767Z,12.27
2022-10-19T07:36:18.848Z,12.32
2022-10-19T07:38:45.906Z,18.10
2022-10-19T07:41:17.690Z,12.95
2022-10-19T07:43:46.201Z,12.10
2022-10-19T07:46:19.203Z,11.20
2022-10-19T07:48:46.965Z,10.73
2022-10-19T07:51:16.256Z,12.30
2022-10-19T07:53:43.806Z,13.77
2022-10-19T07:56:19.842Z,12.32
2022-10-19T07:58:48.933Z,11.23
2022-10-19T08:01:21.700Z,11.05
2022-10-19T08:06:37.417Z,9.75
2022-10-19T08:09:05.569Z,11.25
2022-10-19T08:11:34.701Z,11.45
2022-10-19T08:14:04.998Z,10.27
2022-10-19T08:16:42.794Z,9.35
2022-10-19T08:19:15.442Z,10.63
2022-10-19T08:21:44.975Z,13.20
2022-10-19T08:26:41.200Z,9.95
2022-10-19T08:29:12.168Z,10.40
2022-10-19T08:31:40.087Z,8.07
2022-10-19T08:34:07.577Z,7.53
2022-10-19T08:36:35.710Z,8.27
2022-10-19T08:39:06.184Z,10.57
2022-10-19T08:42:02.710Z,8.20
2022-10-19T08:44:51.669Z,8.20
2022-10-19T08:47:47.001Z,10.02
2022-10-19T08:50:44.508Z,8.40
2022-10-19T08:53:19.327Z,7.00
2022-10-19T08:56:26.780Z,6.13
2022-10-19T08:59:05.183Z,4.32
2022-10-19T09:01:45.440Z,4.03
2022-10-19T09:04:35.285Z,4.22
2022-10-19T09:07:25.435Z,3.08
2022-10-19T09:09:59.538Z,4.20
2022-10-19T09:12:45.024Z,3.00
2022-10-19T09:15:17.762Z,2.25
2022-10-19T09:17:45.033Z,17.58
2022-10-19T09:20:21.815Z,7.47
2022-10-19T09:23:00.330Z,4.05
2022-10-19T09:25:30.612Z,3.40
2022-10-19T09:28:16.392Z,3.17
2022-10-19T09:30:46.835Z,3.58
2022-10-19T09:33:23.297Z,3.35
2022-10-19T09:35:50.786Z,3.15
2022-10-19T09:38:20.084Z,3.28
2022-10-19T09:40:47.179Z,2.53
2022-10-19T09:43:21.751Z,3.45
2022-10-19T09:46:11.587Z,3.30
2022-10-19T09:48:51.923Z,3.03
2022-10-19T09:51:20.518Z,3.13
2022-10-19T09:53:52.027Z,3.53
2022-10-19T09:56:22.267Z,4.22
2022-10-19T09:58:51.392Z,3.20
2022-10-19T10:01:43.811Z,2.85
2022-10-19T10:04:16.600Z,3.47
2022-10-19T10:06:46.845Z,3.30
2022-10-19T10:09:19.545Z,2.78
2022-10-19T10:11:49.518Z,3.00
2022-10-19T10:14:36.307Z,2.53
2022-10-19T10:17:13.202Z,2.28
2022-10-19T10:19:51.434Z,2.42
2022-10-19T10:22:34.614Z,2.17
2022-10-19T10:25:11.066Z,2.10
2022-10-19T10:27:39.320Z,2.63
2022-10-19T10:30:16.612Z,2.50
2022-10-19T10:32:50.087Z,3.20
2022-10-19T10:35:22.239Z,2.50
2022-10-19T10:37:49.852Z,1.92
2022-10-19T10:40:26.727Z,2.13
2022-10-19T10:42:56.606Z,2.30
2022-10-19T10:45:29.299Z,2.83
2022-10-19T10:47:58.047Z,3.03
2022-10-19T10:50:33.650Z,5.25
2022-10-19T10:53:03.954Z,3.15
2022-10-19T10:55:32.465Z,2.67
2022-10-19T10:58:14.015Z,2.87
2022-10-19T11:00:42.924Z,3.42
2022-10-19T11:03:15.947Z,2.38
2022-10-19T11:05:49.746Z,2.40
2022-10-19T11:08:48.970Z,2.15
2022-10-19T11:13:49.597Z,1.40
2022-10-19T11:16:19.499Z,1.80
2022-10-19T11:18:51.691Z,1.60
2022-10-19T11:21:37.764Z,1.42
2022-10-19T11:24:18.207Z,1.70
2022-10-19T11:27:05.270Z,1.48
2022-10-19T11:30:17.561Z,2.25
2022-10-19T11:32:56.709Z,1.60
2022-10-19T11:35:43.666Z,1.88
2022-10-19T11:38:25.142Z,2.20
2022-10-19T11:41:30.119Z,1.55
2022-10-19T11:44:30.874Z,2.38
2022-10-19T11:47:06.938Z,1.67
2022-10-19T11:49:52.212Z,2.75
2022-10-19T11:52:35.556Z,2.00
2022-10-19T11:55:20.997Z,2.33
2022-10-19T11:57:55.527Z,2.17
2022-10-19T12:00:39.471Z,1.38
2022-10-19T12:03:40.577Z,4.25
2022-10-19T12:06:09.202Z,2.55
2022-10-19T12:09:05.895Z,2.37
2022-10-19T12:12:17.453Z,2.50
2022-10-19T12:14:48.260Z,3.92
2022-10-19T12:17:29.240Z,3.45
2022-10-19T12:20:02.396Z,4.65
2022-10-19T12:22:31.239Z,2.65
2022-10-19T12:25:01.325Z,2.78
2022-10-19T12:27:36.254Z,4.57
2022-10-19T12:30:14.932Z,4.10
2022-10-19T12:33:17.339Z,3.70
2022-10-19T12:35:59.374Z,4.47
2022-10-19T12:39:00.195Z,6.22
2022-10-19T12:41:36.085Z,3.53
2022-10-19T12:44:30.254Z,3.95
2022-10-19T12:47:10.592Z,4.32
2022-10-19T12:49:45.799Z,3.40
2022-10-19T12:52:14.821Z,3.65
2022-10-19T12:54:43.693Z,3.50
2022-10-19T12:57:30.345Z,5.03
2022-10-19T13:00:00.790Z,5.28
2022-10-19T13:05:06.155Z,4.15
2022-10-19T13:07:35.979Z,3.90
2022-10-19T13:10:07.578Z,3.38
2022-10-19T13:12:46.444Z,6.30
2022-10-19T13:15:35.100Z,3.95
2022-10-19T13:18:12.546Z,4.00
2022-10-19T13:23:07.537Z,4.43
2022-10-19T13:25:41.412Z,4.40
2022-10-19T13:28:12.748Z,4.28
2022-10-19T13:30:41.655Z,4.55
2022-10-19T13:33:30.222Z,4.28
2022-10-19T13:36:00.374Z,3.67
2022-10-19T13:38:29.316Z,3.50
2022-10-19T13:40:59.555Z,3.80
2022-10-19T13:43:54.569Z,4.45
2022-10-19T13:46:30.717Z,4.15
2022-10-19T13:49:27.836Z,4.03
2022-10-19T13:52:37.506Z,3.85
2022-10-19T13:55:25.899Z,3.95
2022-10-19T13:58:30.865Z,3.47
2022-10-19T14:01:20.737Z,4.57
2022-10-19T14:04:13.934Z,4.15
2022-10-19T14:06:58.270Z,4.75
2022-10-19T14:09:45.691Z,3.95
2022-10-19T14:12:24.812Z,4.60
2022-10-19T14:17:34.098Z,4.57
2022-10-19T14:20:02.064Z,5.30
2022-10-19T14:22:35.860Z,4.57
2022-10-19T14:25:15.040Z,4.30
2022-10-19T14:30:31.367Z,4.30
2022-10-19T14:35:34.392Z,6.05
2022-10-19T14:38:04.823Z,10.80
2022-10-19T14:40:34.383Z,7.97
2022-10-19T14:43:01.687Z,7.65
2022-10-19T14:45:32.158Z,7.88
2022-10-19T14:48:07.501Z,7.90
2022-10-19T14:50:42.678Z,6.85
2022-10-19T14:53:21.769Z,10.85
2022-10-19T14:55:52.081Z,7.50
2022-10-19T14:58:22.176Z,6.50
2022-10-19T15:00:51.259Z,8.52
2022-10-19T15:03:25.775Z,8.32
2022-10-19T15:05:59.565Z,7.13
2022-10-19T15:08:40.144Z,7.03
2022-10-19T15:11:19.122Z,8.10
2022-10-19T15:13:47.919Z,7.32
2022-10-19T15:16:32.395Z,6.47
2022-10-19T15:19:04.832Z,8.23
2022-10-19T15:21:33.569Z,7.47
2022-10-19T15:24:24.191Z,7.55
2022-10-19T15:27:06.423Z,7.85
2022-10-19T15:29:36.081Z,8.68
2022-10-19T15:32:20.232Z,7.60
2022-10-19T15:34:47.398Z,7.93
2022-10-19T15:37:21.083Z,9.13
2022-10-19T15:39:48.707Z,7.93
2022-10-19T15:42:23.511Z,9.90
2022-10-19T15:44:50.816Z,7.88
2022-10-19T15:47:22.068Z,9.00
2022-10-19T15:50:01.057Z,8.98
2022-10-19T15:52:31.703Z,9.23
2022-10-19T15:55:00.162Z,9.43
2022-10-19T15:57:29.337Z,9.93
2022-10-19T15:59:58.141Z,10.68
2022-10-19T16:02:25.573Z,8.88
2022-10-19T16:04:54.157Z,10.60
2022-10-19T16:07:30.197Z,10.00
2022-10-19T16:09:57.832Z,8.38
2022-10-19T16:12:26.556Z,10.07
2022-10-19T16:14:54.726Z,8.63
2022-10-19T16:17:22.329Z,8.70
2022-10-19T16:19:49.536Z,9.65
2022-10-19T16:22:16.798Z,8.45
2022-10-19T16:24:43.870Z,10.45
2022-10-19T16:27:14.965Z,9.93
2022-10-19T16:29:43.467Z,9.18
2022-10-19T16:32:10.509Z,9.48
2022-10-19T16:34:37.971Z,8.13
2022-10-19T16:37:07.072Z,9.15
2022-10-19T16:39:34.785Z,8.73
2022-10-19T16:42:01.864Z,9.90
2022-10-19T16:44:29.144Z,9.10
2022-10-19T16:46:57.238Z,8.60
2022-10-19T16:49:24.382Z,9.02
2022-10-19T16:51:54.703Z,9.05
2022-10-19T16:54:26.632Z,7.78
2022-10-19T16:56:55.514Z,7.45
2022-10-19T16:59:22.709Z,9.70
2022-10-19T17:01:50.108Z,8.65
2022-10-19T17:04:17.979Z,9.75
2022-10-19T17:06:45.249Z,8.80
2022-10-19T17:11:59.888Z,9.18
2022-10-19T17:14:26.957Z,7.55
2022-10-19T17:16:54.021Z,9.23
2022-10-19T17:19:21.106Z,9.30
2022-10-19T17:21:49.506Z,8.55
2022-10-19T17:24:21.968Z,9.55
2022-10-19T17:26:51.750Z,7.50
2022-10-19T17:31:46.799Z,8.45
2022-10-19T17:34:14.449Z,7.70
2022-10-19T17:36:46.701Z,9.32
2022-10-19T17:39:18.734Z,8.05
2022-10-19T17:41:47.234Z,7.82
2022-10-19T17:44:15.337Z,7.63
2022-10-19T17:46:42.774Z,7.35
2022-10-19T17:49:10.300Z,7.20
2022-10-19T17:51:38.475Z,8.05
2022-10-19T17:54:08.448Z,7.43
2022-10-19T17:56:36.919Z,7.60
2022-10-19T17:59:04.854Z,9.43
2022-10-19T18:01:31.949Z,9.15
2022-10-19T18:03:59.222Z,8.27
2022-10-19T18:06:31.392Z,7.30
2022-10-19T18:08:59.994Z,8.60
2022-10-19T18:11:30.028Z,8.13
2022-10-19T18:14:00.121Z,9.23
2022-10-19T18:16:29.113Z,9.18
2022-10-19T18:18:58.049Z,9.00
2022-10-19T18:21:30.491Z,9.95
2022-10-19T18:23:59.475Z,7.95
2022-10-19T18:26:29.889Z,9.85
2022-10-19T18:28:58.271Z,10.38
2022-10-19T18:31:29.564Z,9.73
2022-10-19T18:33:59.505Z,10.05
2022-10-19T18:36:26.943Z,10.55
2022-10-19T18:38:56.771Z,10.13
2022-10-19T18:41:24.615Z,9.52
2022-10-19T18:43:53.856Z,9.32
2022-10-19T18:46:22.572Z,8.45
2022-10-19T18:48:49.918Z,10.00
2022-10-19T18:51:18.653Z,8.90
2022-10-19T18:53:47.169Z,12.17
2022-10-19T18:56:17.253Z,10.13
2022-10-19T18:58:44.853Z,9.65
2022-10-19T19:01:12.015Z,11.63
2022-10-19T19:03:41.846Z,9.93
2022-10-19T19:06:15.001Z,11.70
2022-10-19T19:08:45.456Z,10.75
2022-10-19T19:11:15.445Z,11.55
2022-10-19T19:13:51.052Z,9.85
2022-10-19T19:16:18.379Z,11.23
2022-10-19T19:18:45.777Z,10.63
2022-10-19T19:21:19.520Z,10.43
2022-10-19T19:23:48.043Z,9.85
2022-10-19T19:26:16.434Z,11.73
2022-10-19T19:28:46.389Z,9.10
2022-10-19T19:31:18.181Z,9.05
2022-10-19T19:33:47.086Z,10.23
2022-10-19T19:36:16.984Z,9.55
2022-10-19T19:38:44.715Z,9.38
2022-10-19T19:41:14.238Z,10.13
2022-10-19T19:46:13.642Z,9.98
2022-10-19T19:48:42.589Z,9.52
2022-10-19T19:51:13.623Z,8.65
2022-10-19T19:53:40.841Z,8.77
2022-10-19T19:56:08.969Z,8.00
2022-10-19T19:58:36.461Z,8.75
2022-10-19T20:01:12.522Z,8.68
2022-10-19T20:03:42.234Z,9.30
2022-10-19T20:06:10.298Z,6.88
2022-10-19T20:08:38.210Z,10.30
2022-10-19T20:11:08.675Z,8.55
2022-10-19T20:13:36.101Z,9.85
2022-10-19T20:16:12.563Z,7.88
2022-10-19T20:18:40.716Z,8.25
2022-10-19T20:21:07.820Z,7.97
2022-10-19T20:23:34.997Z,10.23
2022-10-19T20:26:02.268Z,10.63
2022-10-19T20:28:32.652Z,9.02
2022-10-19T20:31:05.152Z,9.07
2022-10-19T20:33:34.461Z,10.40
2022-10-19T20:36:06.371Z,8.52
2022-10-19T20:38:34.712Z,10.18
2022-10-19T20:41:09.908Z,12.20
2022-10-19T20:43:37.493Z,9.93
2022-10-19T20:46:12.700Z,11.88
2022-10-19T20:48:40.388Z,10.70
2022-10-19T20:51:16.279Z,13.32
2022-10-19T20:53:47.811Z,10.93
2022-10-19T20:56:18.352Z,12.38
2022-10-19T20:58:45.555Z,12.05
2022-10-19T21:01:16.520Z,10.63
2022-10-19T21:03:55.698Z,13.63
2022-10-19T21:06:25.053Z,11.98
2022-10-19T21:08:52.293Z,12.00
2022-10-19T21:11:25.384Z,14.65
2022-10-19T21:13:54.544Z,16.30
2022-10-19T21:16:23.528Z,15.77
2022-10-19T21:18:50.721Z,13.48
2022-10-19T21:21:27.086Z,14.68
2022-10-19T21:23:57.026Z,13.15
2022-10-19T21:26:28.494Z,14.82
2022-10-19T21:28:56.136Z,14.52
2022-10-19T21:31:25.695Z,13.13
2022-10-19T21:33:53.620Z,14.82
2022-10-19T21:36:22.116Z,14.45
2022-10-19T21:38:49.197Z,12.60
2022-10-19T21:41:20.983Z,13.65
2022-10-19T21:43:51.332Z,15.60
2022-10-19T21:46:20.382Z,13.20
2022-10-19T21:48:47.806Z,12.10
2022-10-19T21:51:32.563Z,14.02
2022-10-19T21:54:00.595Z,12.02
2022-10-19T21:56:27.731Z,12.50
2022-10-19T21:58:55.702Z,13.25
2022-10-19T22:01:25.768Z,14.38
2022-10-19T22:03:57.348Z,14.25
2022-10-19T22:06:26.087Z,13.27
2022-10-19T22:08:53.797Z,13.10
2022-10-19T22:11:21.656Z,12.18
2022-10-19T22:13:48.912Z,11.48
2022-10-19T22:16:19.060Z,13.05
2022-10-19T22:18:47.490Z,13.80
2022-10-19T22:21:20.595Z,12.32
2022-10-19T22:23:55.892Z,12.45
2022-10-19T22:26:50.660Z,12.43
2022-10-19T22:29:18.278Z,11.23
2022-10-19T22:31:45.373Z,13.52
2022-10-19T22:34:16.266Z,11.48
2022-10-19T22:36:44.314Z,12.80
2022-10-19T22:39:11.753Z,11.95
2022-10-19T22:41:39.082Z,12.60
2022-10-19T22:44:06.168Z,12.85
2022-10-19T22:46:33.304Z,12.35
2022-10-19T22:49:00.531Z,13.88
2022-10-19T22:51:27.868Z,11.63
2022-10-19T22:53:54.914Z,12.48
2022-10-19T22:56:22.020Z,12.73
2022-10-19T22:58:49.419Z,10.38
2022-10-19T23:01:16.755Z,12.93
2022-10-19T23:03:44.191Z,12.27
2022-10-19T23:06:14.035Z,12.20
2022-10-19T23:08:41.828Z,12.40
2022-10-19T23:11:09.030Z,12.60
2022-10-19T23:13:36.119Z,12.75
2022-10-19T23:16:03.433Z,14.63
2022-10-19T23:18:31.911Z,12.55
2022-10-19T23:21:01.585Z,12.88
2022-10-19T23:23:30.035Z,13.80
2022-10-19T23:26:09.040Z,11.68
2022-10-19T23:28:38.305Z,11.55
2022-10-19T23:31:09.276Z,14.10
2022-10-19T23:33:37.050Z,12.73
2022-10-19T23:36:06.994Z,12.63
2022-10-19T23:38:34.941Z,12.77
2022-10-19T23:41:02.117Z,13.80
2022-10-19T23:43:29.595Z,13.52
2022-10-19T23:45:56.702Z,12.75
2022-10-19T23:48:24.555Z,13.60
2022-10-19T23:51:10.250Z,12.73
2022-10-19T23:53:41.266Z,14.70
2022-10-19T23:56:27.162Z,12.75
2022-10-19T23:58:54.936Z,14.13
